sensor_id;sensor_type;location;lat;lon;timestamp;temperature;humidity
70813;DHT22;62099;52.170;5.386;2022-07-30T00:00:47;19.60;67.20
70813;DHT22;62099;52.170;5.386;2022-07-30T00:03:14;19.50;67.20
70813;DHT22;62099;52.170;5.386;2022-07-30T00:05:40;19.50;67.30
70813;DHT22;62099;52.170;5.386;2022-07-30T00:08:07;19.50;67.40
70813;DHT22;62099;52.170;5.386;2022-07-30T00:10:34;19.50;67.40
70813;DHT22;62099;52.170;5.386;2022-07-30T00:13:01;19.50;67.50
70813;DHT22;62099;52.170;5.386;2022-07-30T00:15:27;19.40;67.50
70813;DHT22;62099;52.170;5.386;2022-07-30T00:17:54;19.40;68.10
70813;DHT22;62099;52.170;5.386;2022-07-30T00:20:22;19.30;67.50
70813;DHT22;62099;52.170;5.386;2022-07-30T00:22:53;19.20;67.50
70813;DHT22;62099;52.170;5.386;2022-07-30T00:25:20;19.10;67.60
70813;DHT22;62099;52.170;5.386;2022-07-30T00:27:47;19.10;67.70
70813;DHT22;62099;52.170;5.386;2022-07-30T00:30:14;19.00;68.00
70813;DHT22;62099;52.170;5.386;2022-07-30T00:32:42;19.00;68.00
70813;DHT22;62099;52.170;5.386;2022-07-30T00:35:09;19.00;68.20
70813;DHT22;62099;52.170;5.386;2022-07-30T00:37:35;18.90;68.30
70813;DHT22;62099;52.170;5.386;2022-07-30T00:40:03;18.80;68.30
70813;DHT22;62099;52.170;5.386;2022-07-30T00:42:41;18.80;68.50
70813;DHT22;62099;52.170;5.386;2022-07-30T00:45:09;18.80;68.40
70813;DHT22;62099;52.170;5.386;2022-07-30T00:47:37;18.70;68.60
70813;DHT22;62099;52.170;5.386;2022-07-30T00:50:06;18.70;68.70
70813;DHT22;62099;52.170;5.386;2022-07-30T00:52:34;18.70;68.80
70813;DHT22;62099;52.170;5.386;2022-07-30T00:55:02;18.60;68.80
70813;DHT22;62099;52.170;5.386;2022-07-30T00:57:29;18.70;68.90
70813;DHT22;62099;52.170;5.386;2022-07-30T00:59:57;18.60;68.90
70813;DHT22;62099;52.170;5.386;2022-07-30T01:02:24;18.60;69.00
70813;DHT22;62099;52.170;5.386;2022-07-30T01:04:51;18.50;69.00
70813;DHT22;62099;52.170;5.386;2022-07-30T01:07:18;18.50;69.00
70813;DHT22;62099;52.170;5.386;2022-07-30T01:09:45;18.50;69.20
70813;DHT22;62099;52.170;5.386;2022-07-30T01:12:17;18.50;69.10
70813;DHT22;62099;52.170;5.386;2022-07-30T01:14:45;18.40;69.20
70813;DHT22;62099;52.170;5.386;2022-07-30T01:17:12;18.40;69.20
70813;DHT22;62099;52.170;5.386;2022-07-30T01:19:39;18.40;69.30
70813;DHT22;62099;52.170;5.386;2022-07-30T01:27:34;18.30;69.30
70813;DHT22;62099;52.170;5.386;2022-07-30T01:30:04;18.30;69.50
70813;DHT22;62099;52.170;5.386;2022-07-30T01:32:34;18.30;69.60
70813;DHT22;62099;52.170;5.386;2022-07-30T01:35:02;18.20;69.50
70813;DHT22;62099;52.170;5.386;2022-07-30T01:37:32;18.20;69.50
70813;DHT22;62099;52.170;5.386;2022-07-30T01:39:59;18.10;69.40
70813;DHT22;62099;52.170;5.386;2022-07-30T01:42:27;18.00;69.50
70813;DHT22;62099;52.170;5.386;2022-07-30T01:44:56;17.90;69.70
70813;DHT22;62099;52.170;5.386;2022-07-30T01:47:24;17.90;69.90
70813;DHT22;62099;52.170;5.386;2022-07-30T01:49:53;17.80;69.90
70813;DHT22;62099;52.170;5.386;2022-07-30T01:52:22;17.70;69.90
70813;DHT22;62099;52.170;5.386;2022-07-30T01:54:53;17.60;70.10
70813;DHT22;62099;52.170;5.386;2022-07-30T01:57:22;17.50;70.40
70813;DHT22;62099;52.170;5.386;2022-07-30T01:59:53;17.50;70.60
70813;DHT22;62099;52.170;5.386;2022-07-30T02:02:20;17.40;70.70
70813;DHT22;62099;52.170;5.386;2022-07-30T02:04:47;17.40;70.70
70813;DHT22;62099;52.170;5.386;2022-07-30T02:07:23;17.30;70.70
70813;DHT22;62099;52.170;5.386;2022-07-30T02:09:57;17.30;70.70
70813;DHT22;62099;52.170;5.386;2022-07-30T02:12:26;17.10;70.80
70813;DHT22;62099;52.170;5.386;2022-07-30T02:17:56;17.00;71.20
70813;DHT22;62099;52.170;5.386;2022-07-30T02:20:27;17.00;71.40
70813;DHT22;62099;52.170;5.386;2022-07-30T02:23:04;17.00;71.60
70813;DHT22;62099;52.170;5.386;2022-07-30T02:25:34;16.90;71.60
70813;DHT22;62099;52.170;5.386;2022-07-30T02:28:05;16.90;71.80
70813;DHT22;62099;52.170;5.386;2022-07-30T02:30:36;16.90;71.90
70813;DHT22;62099;52.170;5.386;2022-07-30T02:33:07;16.90;72.00
70813;DHT22;62099;52.170;5.386;2022-07-30T02:35:37;16.90;72.00
70813;DHT22;62099;52.170;5.386;2022-07-30T02:38:04;16.80;72.10
70813;DHT22;62099;52.170;5.386;2022-07-30T02:40:32;16.80;72.10
70813;DHT22;62099;52.170;5.386;2022-07-30T02:42:59;16.80;72.30
70813;DHT22;62099;52.170;5.386;2022-07-30T02:45:28;16.80;72.30
70813;DHT22;62099;52.170;5.386;2022-07-30T02:47:59;16.70;72.30
70813;DHT22;62099;52.170;5.386;2022-07-30T02:50:27;16.70;72.40
70813;DHT22;62099;52.170;5.386;2022-07-30T02:52:57;16.70;72.40
70813;DHT22;62099;52.170;5.386;2022-07-30T02:55:26;16.60;72.50
70813;DHT22;62099;52.170;5.386;2022-07-30T02:57:54;16.50;72.50
70813;DHT22;62099;52.170;5.386;2022-07-30T03:00:23;16.50;72.80
70813;DHT22;62099;52.170;5.386;2022-07-30T03:02:54;16.40;72.80
70813;DHT22;62099;52.170;5.386;2022-07-30T03:05:23;16.40;73.00
70813;DHT22;62099;52.170;5.386;2022-07-30T03:07:54;16.40;73.10
70813;DHT22;62099;52.170;5.386;2022-07-30T03:10:24;16.30;73.20
70813;DHT22;62099;52.170;5.386;2022-07-30T03:12:51;16.30;73.20
70813;DHT22;62099;52.170;5.386;2022-07-30T03:15:18;16.40;73.40
70813;DHT22;62099;52.170;5.386;2022-07-30T03:17:50;16.40;73.40
70813;DHT22;62099;52.170;5.386;2022-07-30T03:20:19;16.40;73.40
70813;DHT22;62099;52.170;5.386;2022-07-30T03:22:50;16.40;73.30
70813;DHT22;62099;52.170;5.386;2022-07-30T03:25:22;16.50;73.40
70813;DHT22;62099;52.170;5.386;2022-07-30T03:27:51;16.50;73.30
70813;DHT22;62099;52.170;5.386;2022-07-30T03:30:20;16.50;73.30
70813;DHT22;62099;52.170;5.386;2022-07-30T03:32:49;16.40;73.30
70813;DHT22;62099;52.170;5.386;2022-07-30T03:35:17;16.40;73.30
70813;DHT22;62099;52.170;5.386;2022-07-30T03:37:46;16.40;73.40
70813;DHT22;62099;52.170;5.386;2022-07-30T03:40:14;16.30;73.40
70813;DHT22;62099;52.170;5.386;2022-07-30T03:42:41;16.30;73.50
70813;DHT22;62099;52.170;5.386;2022-07-30T03:45:14;16.30;73.60
70813;DHT22;62099;52.170;5.386;2022-07-30T03:47:42;16.20;73.60
70813;DHT22;62099;52.170;5.386;2022-07-30T03:50:12;16.20;73.70
70813;DHT22;62099;52.170;5.386;2022-07-30T03:52:41;16.20;73.60
70813;DHT22;62099;52.170;5.386;2022-07-30T03:55:14;16.20;73.60
70813;DHT22;62099;52.170;5.386;2022-07-30T03:57:49;16.20;73.50
70813;DHT22;62099;52.170;5.386;2022-07-30T04:00:19;16.10;73.70
70813;DHT22;62099;52.170;5.386;2022-07-30T04:02:50;16.10;73.90
70813;DHT22;62099;52.170;5.386;2022-07-30T04:05:45;16.10;74.00
70813;DHT22;62099;52.170;5.386;2022-07-30T04:08:12;16.10;74.10
70813;DHT22;62099;52.170;5.386;2022-07-30T04:10:39;16.10;74.10
70813;DHT22;62099;52.170;5.386;2022-07-30T04:13:21;16.00;74.20
70813;DHT22;62099;52.170;5.386;2022-07-30T04:15:58;16.00;74.20
70813;DHT22;62099;52.170;5.386;2022-07-30T04:18:49;16.00;74.30
70813;DHT22;62099;52.170;5.386;2022-07-30T04:21:17;16.00;74.40
70813;DHT22;62099;52.170;5.386;2022-07-30T04:23:48;16.00;74.30
70813;DHT22;62099;52.170;5.386;2022-07-30T04:26:32;16.00;74.40
70813;DHT22;62099;52.170;5.386;2022-07-30T04:29:00;16.10;74.40
70813;DHT22;62099;52.170;5.386;2022-07-30T04:31:28;16.20;74.40
70813;DHT22;62099;52.170;5.386;2022-07-30T04:34:02;16.20;74.40
70813;DHT22;62099;52.170;5.386;2022-07-30T04:36:38;16.20;74.30
70813;DHT22;62099;52.170;5.386;2022-07-30T04:39:05;16.30;74.30
70813;DHT22;62099;52.170;5.386;2022-07-30T04:41:32;16.30;74.30
70813;DHT22;62099;52.170;5.386;2022-07-30T04:44:40;16.40;73.60
70813;DHT22;62099;52.170;5.386;2022-07-30T04:47:23;16.40;74.10
70813;DHT22;62099;52.170;5.386;2022-07-30T04:50:24;16.40;74.10
70813;DHT22;62099;52.170;5.386;2022-07-30T04:52:54;16.40;74.20
70813;DHT22;62099;52.170;5.386;2022-07-30T04:55:32;16.40;74.20
70813;DHT22;62099;52.170;5.386;2022-07-30T04:58:00;16.50;74.20
70813;DHT22;62099;52.170;5.386;2022-07-30T05:00:31;16.50;74.20
70813;DHT22;62099;52.170;5.386;2022-07-30T05:03:08;16.60;74.30
70813;DHT22;62099;52.170;5.386;2022-07-30T05:05:39;16.60;74.20
70813;DHT22;62099;52.170;5.386;2022-07-30T05:08:06;16.70;74.30
70813;DHT22;62099;52.170;5.386;2022-07-30T05:10:33;16.80;74.20
70813;DHT22;62099;52.170;5.386;2022-07-30T05:13:00;16.80;74.10
70813;DHT22;62099;52.170;5.386;2022-07-30T05:15:28;16.90;74.00
70813;DHT22;62099;52.170;5.386;2022-07-30T05:18:03;17.00;73.90
70813;DHT22;62099;52.170;5.386;2022-07-30T05:20:33;17.00;73.70
70813;DHT22;62099;52.170;5.386;2022-07-30T05:23:19;17.10;73.70
70813;DHT22;62099;52.170;5.386;2022-07-30T05:25:56;17.10;73.50
70813;DHT22;62099;52.170;5.386;2022-07-30T05:28:29;17.20;73.50
70813;DHT22;62099;52.170;5.386;2022-07-30T05:31:00;17.20;73.30
70813;DHT22;62099;52.170;5.386;2022-07-30T05:33:35;17.30;73.40
70813;DHT22;62099;52.170;5.386;2022-07-30T05:36:09;17.30;73.30
70813;DHT22;62099;52.170;5.386;2022-07-30T05:38:37;17.30;73.10
70813;DHT22;62099;52.170;5.386;2022-07-30T05:41:27;17.40;73.10
70813;DHT22;62099;52.170;5.386;2022-07-30T05:44:08;17.40;73.10
70813;DHT22;62099;52.170;5.386;2022-07-30T05:46:35;17.40;73.10
70813;DHT22;62099;52.170;5.386;2022-07-30T05:49:02;17.50;73.10
70813;DHT22;62099;52.170;5.386;2022-07-30T05:51:30;17.50;73.10
70813;DHT22;62099;52.170;5.386;2022-07-30T05:53:57;17.60;73.10
70813;DHT22;62099;52.170;5.386;2022-07-30T05:56:29;17.70;72.60
70813;DHT22;62099;52.170;5.386;2022-07-30T05:59:22;17.70;72.80
70813;DHT22;62099;52.170;5.386;2022-07-30T06:02:08;17.80;72.50
70813;DHT22;62099;52.170;5.386;2022-07-30T06:04:56;17.90;72.60
70813;DHT22;62099;52.170;5.386;2022-07-30T06:07:24;18.00;72.30
70813;DHT22;62099;52.170;5.386;2022-07-30T06:09:53;18.10;72.10
70813;DHT22;62099;52.170;5.386;2022-07-30T06:12:29;18.10;71.90
70813;DHT22;62099;52.170;5.386;2022-07-30T06:14:56;18.20;71.80
70813;DHT22;62099;52.170;5.386;2022-07-30T06:17:30;18.30;71.40
70813;DHT22;62099;52.170;5.386;2022-07-30T06:20:18;18.30;71.40
70813;DHT22;62099;52.170;5.386;2022-07-30T06:23:05;18.40;71.30
70813;DHT22;62099;52.170;5.386;2022-07-30T06:26:01;18.50;71.10
70813;DHT22;62099;52.170;5.386;2022-07-30T06:28:28;18.50;70.90
70813;DHT22;62099;52.170;5.386;2022-07-30T06:31:12;18.50;70.80
70813;DHT22;62099;52.170;5.386;2022-07-30T06:33:38;18.60;70.80
70813;DHT22;62099;52.170;5.386;2022-07-30T06:36:05;18.70;70.70
70813;DHT22;62099;52.170;5.386;2022-07-30T06:38:44;18.70;70.90
70813;DHT22;62099;52.170;5.386;2022-07-30T06:41:13;18.80;70.50
70813;DHT22;62099;52.170;5.386;2022-07-30T06:43:50;18.90;70.00
70813;DHT22;62099;52.170;5.386;2022-07-30T06:46:49;19.00;69.50
70813;DHT22;62099;52.170;5.386;2022-07-30T06:49:18;19.10;69.20
70813;DHT22;62099;52.170;5.386;2022-07-30T06:51:45;19.10;69.00
70813;DHT22;62099;52.170;5.386;2022-07-30T06:54:12;19.20;69.00
70813;DHT22;62099;52.170;5.386;2022-07-30T06:56:57;19.30;68.60
70813;DHT22;62099;52.170;5.386;2022-07-30T06:59:25;19.60;68.00
70813;DHT22;62099;52.170;5.386;2022-07-30T07:02:25;19.80;67.70
70813;DHT22;62099;52.170;5.386;2022-07-30T07:05:12;20.10;66.70
70813;DHT22;62099;52.170;5.386;2022-07-30T07:07:43;20.40;65.50
70813;DHT22;62099;52.170;5.386;2022-07-30T07:10:25;20.60;64.90
70813;DHT22;62099;52.170;5.386;2022-07-30T07:13:01;20.80;64.30
70813;DHT22;62099;52.170;5.386;2022-07-30T07:15:27;20.80;63.50
70813;DHT22;62099;52.170;5.386;2022-07-30T07:18:04;20.80;63.30
70813;DHT22;62099;52.170;5.386;2022-07-30T07:20:37;20.90;62.90
70813;DHT22;62099;52.170;5.386;2022-07-30T07:23:06;20.80;62.60
70813;DHT22;62099;52.170;5.386;2022-07-30T07:25:35;20.70;62.20
70813;DHT22;62099;52.170;5.386;2022-07-30T07:28:02;20.50;62.30
70813;DHT22;62099;52.170;5.386;2022-07-30T07:30:41;20.30;62.10
70813;DHT22;62099;52.170;5.386;2022-07-30T07:33:09;20.10;62.40
70813;DHT22;62099;52.170;5.386;2022-07-30T07:35:37;20.00;62.80
70813;DHT22;62099;52.170;5.386;2022-07-30T07:38:20;19.90;62.70
70813;DHT22;62099;52.170;5.386;2022-07-30T07:40:48;19.90;62.60
70813;DHT22;62099;52.170;5.386;2022-07-30T07:43:15;20.00;62.60
70813;DHT22;62099;52.170;5.386;2022-07-30T07:45:42;20.00;62.60
70813;DHT22;62099;52.170;5.386;2022-07-30T07:48:09;19.90;62.60
70813;DHT22;62099;52.170;5.386;2022-07-30T07:50:47;20.00;62.60
70813;DHT22;62099;52.170;5.386;2022-07-30T07:53:22;20.10;62.70
70813;DHT22;62099;52.170;5.386;2022-07-30T07:55:50;20.20;62.50
70813;DHT22;62099;52.170;5.386;2022-07-30T07:58:20;20.20;62.30
70813;DHT22;62099;52.170;5.386;2022-07-30T08:00:53;20.30;61.90
70813;DHT22;62099;52.170;5.386;2022-07-30T08:03:23;20.40;61.80
70813;DHT22;62099;52.170;5.386;2022-07-30T08:05:52;20.50;61.30
70813;DHT22;62099;52.170;5.386;2022-07-30T08:08:46;20.40;61.30
70813;DHT22;62099;52.170;5.386;2022-07-30T08:11:42;20.50;61.00
70813;DHT22;62099;52.170;5.386;2022-07-30T08:14:44;20.70;60.80
70813;DHT22;62099;52.170;5.386;2022-07-30T08:17:29;20.80;60.70
70813;DHT22;62099;52.170;5.386;2022-07-30T08:20:28;20.90;60.70
70813;DHT22;62099;52.170;5.386;2022-07-30T08:22:59;21.00;60.30
70813;DHT22;62099;52.170;5.386;2022-07-30T08:25:25;21.10;59.40
70813;DHT22;62099;52.170;5.386;2022-07-30T08:27:53;21.10;59.20
70813;DHT22;62099;52.170;5.386;2022-07-30T08:30:21;21.10;59.00
70813;DHT22;62099;52.170;5.386;2022-07-30T08:32:48;21.20;58.40
70813;DHT22;62099;52.170;5.386;2022-07-30T08:35:15;21.20;58.50
70813;DHT22;62099;52.170;5.386;2022-07-30T08:37:42;21.30;58.60
70813;DHT22;62099;52.170;5.386;2022-07-30T08:40:09;21.30;58.10
70813;DHT22;62099;52.170;5.386;2022-07-30T08:42:46;21.40;57.60
70813;DHT22;62099;52.170;5.386;2022-07-30T08:45:14;21.40;57.60
70813;DHT22;62099;52.170;5.386;2022-07-30T08:47:45;21.50;57.50
70813;DHT22;62099;52.170;5.386;2022-07-30T08:50:20;21.60;57.20
70813;DHT22;62099;52.170;5.386;2022-07-30T08:53:07;21.60;57.00
70813;DHT22;62099;52.170;5.386;2022-07-30T08:55:34;21.60;56.80
70813;DHT22;62099;52.170;5.386;2022-07-30T08:58:01;21.70;56.70
70813;DHT22;62099;52.170;5.386;2022-07-30T09:00:28;21.70;56.60
70813;DHT22;62099;52.170;5.386;2022-07-30T09:02:57;21.80;56.80
70813;DHT22;62099;52.170;5.386;2022-07-30T09:05:24;21.80;56.10
70813;DHT22;62099;52.170;5.386;2022-07-30T09:07:51;21.90;55.60
70813;DHT22;62099;52.170;5.386;2022-07-30T09:10:22;22.00;56.30
70813;DHT22;62099;52.170;5.386;2022-07-30T09:12:49;22.10;54.80
70813;DHT22;62099;52.170;5.386;2022-07-30T09:15:19;22.20;54.70
70813;DHT22;62099;52.170;5.386;2022-07-30T09:18:24;22.30;54.40
70813;DHT22;62099;52.170;5.386;2022-07-30T09:20:51;22.30;54.20
70813;DHT22;62099;52.170;5.386;2022-07-30T09:23:18;22.30;54.30
70813;DHT22;62099;52.170;5.386;2022-07-30T09:26:14;22.40;54.40
70813;DHT22;62099;52.170;5.386;2022-07-30T09:29:15;22.50;53.90
70813;DHT22;62099;52.170;5.386;2022-07-30T09:32:03;22.70;53.70
70813;DHT22;62099;52.170;5.386;2022-07-30T09:34:53;22.70;53.30
70813;DHT22;62099;52.170;5.386;2022-07-30T09:37:40;22.70;53.20
70813;DHT22;62099;52.170;5.386;2022-07-30T09:40:26;22.80;53.30
70813;DHT22;62099;52.170;5.386;2022-07-30T09:43:16;22.90;53.30
70813;DHT22;62099;52.170;5.386;2022-07-30T09:45:50;22.80;54.60
70813;DHT22;62099;52.170;5.386;2022-07-30T09:48:25;22.90;53.20
70813;DHT22;62099;52.170;5.386;2022-07-30T09:50:53;22.90;52.70
70813;DHT22;62099;52.170;5.386;2022-07-30T09:53:23;22.90;52.90
70813;DHT22;62099;52.170;5.386;2022-07-30T09:55:50;22.90;52.80
70813;DHT22;62099;52.170;5.386;2022-07-30T09:58:18;23.00;52.80
70813;DHT22;62099;52.170;5.386;2022-07-30T10:00:57;23.10;52.60
70813;DHT22;62099;52.170;5.386;2022-07-30T10:03:44;23.10;52.40
70813;DHT22;62099;52.170;5.386;2022-07-30T10:06:35;23.10;52.20
70813;DHT22;62099;52.170;5.386;2022-07-30T10:09:44;23.20;52.10
70813;DHT22;62099;52.170;5.386;2022-07-30T10:12:14;23.30;52.10
70813;DHT22;62099;52.170;5.386;2022-07-30T10:14:45;23.40;51.80
70813;DHT22;62099;52.170;5.386;2022-07-30T10:17:16;23.60;50.60
70813;DHT22;62099;52.170;5.386;2022-07-30T10:20:07;23.70;50.20
70813;DHT22;62099;52.170;5.386;2022-07-30T10:22:53;23.70;49.80
70813;DHT22;62099;52.170;5.386;2022-07-30T10:25:59;23.90;50.20
70813;DHT22;62099;52.170;5.386;2022-07-30T10:28:48;24.10;49.60
70813;DHT22;62099;52.170;5.386;2022-07-30T10:31:18;24.20;49.40
70813;DHT22;62099;52.170;5.386;2022-07-30T10:34:05;24.40;48.80
70813;DHT22;62099;52.170;5.386;2022-07-30T10:36:33;24.60;48.00
70813;DHT22;62099;52.170;5.386;2022-07-30T10:39:01;24.60;47.50
70813;DHT22;62099;52.170;5.386;2022-07-30T10:47:02;25.10;47.00
70813;DHT22;62099;52.170;5.386;2022-07-30T10:49:34;25.20;46.80
70813;DHT22;62099;52.170;5.386;2022-07-30T10:52:07;25.40;46.20
70813;DHT22;62099;52.170;5.386;2022-07-30T10:54:43;25.60;45.90
70813;DHT22;62099;52.170;5.386;2022-07-30T10:57:16;25.70;45.50
70813;DHT22;62099;52.170;5.386;2022-07-30T11:02:30;25.80;45.40
70813;DHT22;62099;52.170;5.386;2022-07-30T11:07:47;26.10;45.50
70813;DHT22;62099;52.170;5.386;2022-07-30T11:10:34;26.30;44.70
70813;DHT22;62099;52.170;5.386;2022-07-30T11:13:04;26.30;44.70
70813;DHT22;62099;52.170;5.386;2022-07-30T11:18:23;26.20;44.60
70813;DHT22;62099;52.170;5.386;2022-07-30T11:21:16;26.20;44.20
70813;DHT22;62099;52.170;5.386;2022-07-30T11:23:51;26.00;43.90
70813;DHT22;62099;52.170;5.386;2022-07-30T11:29:39;26.10;44.80
70813;DHT22;62099;52.170;5.386;2022-07-30T11:35:17;26.80;43.60
70813;DHT22;62099;52.170;5.386;2022-07-30T11:43:15;27.30;42.40
70813;DHT22;62099;52.170;5.386;2022-07-30T11:45:45;27.40;42.20
70813;DHT22;62099;52.170;5.386;2022-07-30T11:48:14;27.70;41.90
70813;DHT22;62099;52.170;5.386;2022-07-30T11:50:41;28.10;42.00
70813;DHT22;62099;52.170;5.386;2022-07-30T11:53:19;28.30;41.00
70813;DHT22;62099;52.170;5.386;2022-07-30T11:55:54;28.50;40.50
70813;DHT22;62099;52.170;5.386;2022-07-30T11:58:24;28.60;41.20
70813;DHT22;62099;52.170;5.386;2022-07-30T12:00:56;28.90;40.00
70813;DHT22;62099;52.170;5.386;2022-07-30T12:03:24;29.20;39.60
70813;DHT22;62099;52.170;5.386;2022-07-30T12:05:55;29.60;39.30
70813;DHT22;62099;52.170;5.386;2022-07-30T12:08:22;29.80;38.50
70813;DHT22;62099;52.170;5.386;2022-07-30T12:11:02;30.00;38.20
70813;DHT22;62099;52.170;5.386;2022-07-30T12:13:28;30.10;37.70
70813;DHT22;62099;52.170;5.386;2022-07-30T12:16:15;30.10;37.60
70813;DHT22;62099;52.170;5.386;2022-07-30T12:18:42;30.40;37.90
70813;DHT22;62099;52.170;5.386;2022-07-30T12:21:10;30.40;37.60
70813;DHT22;62099;52.170;5.386;2022-07-30T12:23:38;30.20;37.20
70813;DHT22;62099;52.170;5.386;2022-07-30T12:26:07;29.90;37.40
70813;DHT22;62099;52.170;5.386;2022-07-30T12:28:34;30.00;37.50
70813;DHT22;62099;52.170;5.386;2022-07-30T12:31:01;30.20;36.90
70813;DHT22;62099;52.170;5.386;2022-07-30T12:33:32;30.40;37.30
70813;DHT22;62099;52.170;5.386;2022-07-30T12:35:59;30.90;36.90
70813;DHT22;62099;52.170;5.386;2022-07-30T12:38:27;31.30;36.40
70813;DHT22;62099;52.170;5.386;2022-07-30T12:41:03;31.80;36.10
70813;DHT22;62099;52.170;5.386;2022-07-30T12:43:52;32.40;35.10
70813;DHT22;62099;52.170;5.386;2022-07-30T12:46:25;32.50;34.70
70813;DHT22;62099;52.170;5.386;2022-07-30T12:49:01;32.40;34.60
70813;DHT22;62099;52.170;5.386;2022-07-30T12:51:52;32.10;34.70
70813;DHT22;62099;52.170;5.386;2022-07-30T12:54:26;32.10;34.60
70813;DHT22;62099;52.170;5.386;2022-07-30T12:57:00;32.20;34.80
70813;DHT22;62099;52.170;5.386;2022-07-30T12:59:29;32.30;34.30
70813;DHT22;62099;52.170;5.386;2022-07-30T13:01:57;31.90;34.40
70813;DHT22;62099;52.170;5.386;2022-07-30T13:04:26;31.50;34.30
70813;DHT22;62099;52.170;5.386;2022-07-30T13:09:34;30.70;35.00
70813;DHT22;62099;52.170;5.386;2022-07-30T13:12:01;30.40;35.40
70813;DHT22;62099;52.170;5.386;2022-07-30T13:14:27;30.60;35.60
70813;DHT22;62099;52.170;5.386;2022-07-30T13:16:54;30.90;35.60
70813;DHT22;62099;52.170;5.386;2022-07-30T13:19:23;31.10;35.20
70813;DHT22;62099;52.170;5.386;2022-07-30T13:21:50;31.30;35.20
70813;DHT22;62099;52.170;5.386;2022-07-30T13:24:17;31.70;35.50
70813;DHT22;62099;52.170;5.386;2022-07-30T13:26:45;32.00;34.80
70813;DHT22;62099;52.170;5.386;2022-07-30T13:29:12;32.10;34.70
70813;DHT22;62099;52.170;5.386;2022-07-30T13:31:40;32.30;34.10
70813;DHT22;62099;52.170;5.386;2022-07-30T13:34:10;32.70;34.60
70813;DHT22;62099;52.170;5.386;2022-07-30T13:36:36;33.80;34.00
70813;DHT22;62099;52.170;5.386;2022-07-30T13:39:03;34.90;32.70
70813;DHT22;62099;52.170;5.386;2022-07-30T13:41:34;35.60;31.80
70813;DHT22;62099;52.170;5.386;2022-07-30T13:44:02;36.40;31.80
70813;DHT22;62099;52.170;5.386;2022-07-30T13:46:29;37.50;30.60
70813;DHT22;62099;52.170;5.386;2022-07-30T13:48:55;38.50;29.70
70813;DHT22;62099;52.170;5.386;2022-07-30T13:51:22;39.10;29.20
70813;DHT22;62099;52.170;5.386;2022-07-30T13:53:49;39.20;28.90
70813;DHT22;62099;52.170;5.386;2022-07-30T13:56:16;38.80;28.60
70813;DHT22;62099;52.170;5.386;2022-07-30T13:58:46;37.90;28.50
70813;DHT22;62099;52.170;5.386;2022-07-30T14:01:13;36.90;29.20
70813;DHT22;62099;52.170;5.386;2022-07-30T14:03:44;36.20;29.50
70813;DHT22;62099;52.170;5.386;2022-07-30T14:06:16;35.80;30.10
70813;DHT22;62099;52.170;5.386;2022-07-30T14:08:43;36.00;30.00
70813;DHT22;62099;52.170;5.386;2022-07-30T14:11:09;36.00;29.80
70813;DHT22;62099;52.170;5.386;2022-07-30T14:13:36;35.40;30.00
70813;DHT22;62099;52.170;5.386;2022-07-30T14:16:04;34.70;30.70
70813;DHT22;62099;52.170;5.386;2022-07-30T14:18:43;34.00;31.10
70813;DHT22;62099;52.170;5.386;2022-07-30T14:21:10;33.30;31.70
70813;DHT22;62099;52.170;5.386;2022-07-30T14:23:37;32.90;31.90
70813;DHT22;62099;52.170;5.386;2022-07-30T14:26:04;32.60;31.70
70813;DHT22;62099;52.170;5.386;2022-07-30T14:28:31;32.30;31.80
70813;DHT22;62099;52.170;5.386;2022-07-30T14:30:57;32.00;32.00
70813;DHT22;62099;52.170;5.386;2022-07-30T14:33:24;31.80;32.60
70813;DHT22;62099;52.170;5.386;2022-07-30T14:35:51;31.70;32.80
70813;DHT22;62099;52.170;5.386;2022-07-30T14:38:17;31.80;32.70
70813;DHT22;62099;52.170;5.386;2022-07-30T14:40:44;31.90;32.40
70813;DHT22;62099;52.170;5.386;2022-07-30T14:43:12;31.90;32.40
70813;DHT22;62099;52.170;5.386;2022-07-30T14:45:40;31.90;32.60
70813;DHT22;62099;52.170;5.386;2022-07-30T14:48:07;31.90;32.70
70813;DHT22;62099;52.170;5.386;2022-07-30T14:50:34;31.70;32.70
70813;DHT22;62099;52.170;5.386;2022-07-30T14:53:20;31.50;33.00
70813;DHT22;62099;52.170;5.386;2022-07-30T14:55:48;31.20;33.50
70813;DHT22;62099;52.170;5.386;2022-07-30T14:58:14;30.90;33.80
70813;DHT22;62099;52.170;5.386;2022-07-30T15:00:41;30.70;34.10
70813;DHT22;62099;52.170;5.386;2022-07-30T15:03:14;30.60;34.20
70813;DHT22;62099;52.170;5.386;2022-07-30T15:05:41;30.70;34.40
70813;DHT22;62099;52.170;5.386;2022-07-30T15:08:08;31.10;34.60
70813;DHT22;62099;52.170;5.386;2022-07-30T15:10:34;31.50;34.40
70813;DHT22;62099;52.170;5.386;2022-07-30T15:13:02;31.90;33.90
70813;DHT22;62099;52.170;5.386;2022-07-30T15:15:29;32.40;33.90
70813;DHT22;62099;52.170;5.386;2022-07-30T15:18:03;32.90;33.00
70813;DHT22;62099;52.170;5.386;2022-07-30T15:20:30;33.40;32.50
70813;DHT22;62099;52.170;5.386;2022-07-30T15:22:57;33.80;32.10
70813;DHT22;62099;52.170;5.386;2022-07-30T15:25:23;34.20;31.80
70813;DHT22;62099;52.170;5.386;2022-07-30T15:27:50;34.40;31.40
70813;DHT22;62099;52.170;5.386;2022-07-30T15:30:19;34.60;31.50
70813;DHT22;62099;52.170;5.386;2022-07-30T15:32:46;34.70;31.00
70813;DHT22;62099;52.170;5.386;2022-07-30T15:35:12;35.00;30.80
70813;DHT22;62099;52.170;5.386;2022-07-30T15:37:40;35.30;30.70
70813;DHT22;62099;52.170;5.386;2022-07-30T15:40:07;35.60;30.50
70813;DHT22;62099;52.170;5.386;2022-07-30T15:42:33;35.70;30.80
70813;DHT22;62099;52.170;5.386;2022-07-30T15:45:03;35.60;30.10
70813;DHT22;62099;52.170;5.386;2022-07-30T15:47:43;35.30;30.60
70813;DHT22;62099;52.170;5.386;2022-07-30T15:50:10;35.80;30.80
70813;DHT22;62099;52.170;5.386;2022-07-30T15:52:37;36.90;30.00
70813;DHT22;62099;52.170;5.386;2022-07-30T15:55:05;37.80;29.50
70813;DHT22;62099;52.170;5.386;2022-07-30T15:57:32;38.70;29.40
70813;DHT22;62099;52.170;5.386;2022-07-30T15:59:59;39.90;29.00
70813;DHT22;62099;52.170;5.386;2022-07-30T16:02:26;40.80;28.10
70813;DHT22;62099;52.170;5.386;2022-07-30T16:04:53;40.70;27.50
70813;DHT22;62099;52.170;5.386;2022-07-30T16:07:20;39.30;27.40
70813;DHT22;62099;52.170;5.386;2022-07-30T16:09:46;38.00;27.90
70813;DHT22;62099;52.170;5.386;2022-07-30T16:12:13;37.40;28.40
70813;DHT22;62099;52.170;5.386;2022-07-30T16:14:40;37.00;28.60
70813;DHT22;62099;52.170;5.386;2022-07-30T16:17:07;36.50;28.90
70813;DHT22;62099;52.170;5.386;2022-07-30T16:19:39;36.50;29.30
70813;DHT22;62099;52.170;5.386;2022-07-30T16:22:10;36.10;29.40
70813;DHT22;62099;52.170;5.386;2022-07-30T16:24:40;35.40;29.80
70813;DHT22;62099;52.170;5.386;2022-07-30T16:27:07;34.70;30.30
70813;DHT22;62099;52.170;5.386;2022-07-30T16:29:34;33.90;30.90
70813;DHT22;62099;52.170;5.386;2022-07-30T16:32:00;33.10;31.30
70813;DHT22;62099;52.170;5.386;2022-07-30T16:34:27;32.30;32.20
70813;DHT22;62099;52.170;5.386;2022-07-30T16:36:56;31.70;33.00